Time;durP1;ratioP1;P1;durP2;ratioP2;P2;SDS_P1;SDS_P2;PMS_P1;PMS_P2;Temp;Humidity;BMP_temperature;BMP_pressure;BME280_temperature;BME280_humidity;BME280_pressure;Samples;Min_cycle;Max_cycle;Signal;HPM_P1;HPM_P2
2023/03/22 00:01:59;;;;;;;7.72;5.20;;;9.30;99.90;;;;;;15424454;23;20021;-78
2023/03/22 00:08:04;;;;;;;9.95;5.38;;;9.40;99.90;;;;;;15392653;23;20044;-79
2023/03/22 00:14:06;;;;;;;9.30;5.25;;;9.40;99.90;;;;;;15398244;23;20035;-78
2023/03/22 00:20:08;;;;;;;9.27;4.55;;;9.40;99.90;;;;;;15400612;22;20401;-79
2023/03/22 00:26:12;;;;;;;9.63;5.30;;;9.40;99.90;;;;;;15430613;23;20021;-79
2023/03/22 00:32:14;;;;;;;12.38;5.28;;;9.50;99.90;;;;;;15422191;23;20347;-78
2023/03/22 00:38:16;;;;;;;8.82;5.43;;;9.50;99.90;;;;;;15402949;23;20096;-78
2023/03/22 00:44:18;;;;;;;9.68;5.47;;;9.50;99.90;;;;;;15424906;23;20025;-78
2023/03/22 00:50:20;;;;;;;10.90;5.45;;;9.60;99.90;;;;;;15391105;23;20067;-78
2023/03/22 00:56:24;;;;;;;8.55;4.97;;;9.60;99.90;;;;;;15399685;23;20469;-78
2023/03/22 01:02:28;;;;;;;12.30;5.25;;;9.60;99.90;;;;;;15398026;23;20024;-79
2023/03/22 01:08:32;;;;;;;9.80;4.47;;;9.70;99.90;;;;;;15394675;23;20057;-79
2023/03/22 01:14:34;;;;;;;8.87;5.17;;;9.70;99.90;;;;;;15425148;23;20470;-79
2023/03/22 01:20:36;;;;;;;11.57;5.38;;;9.70;99.90;;;;;;15426450;23;20264;-78
2023/03/22 01:26:39;;;;;;;12.90;5.40;;;9.70;99.90;;;;;;15401738;23;20353;-77
2023/03/22 01:32:41;;;;;;;9.20;5.50;;;9.70;99.90;;;;;;15399206;23;20103;-77
2023/03/22 01:38:43;;;;;;;10.38;5.28;;;9.80;99.90;;;;;;15399558;23;20091;-78
2023/03/22 01:45:15;;;;;;;13.25;5.45;;;9.80;99.90;;;;;;15397967;23;20052;-78
2023/03/22 01:51:21;;;;;;;10.43;5.50;;;9.80;99.90;;;;;;15399149;23;20411;-78
2023/03/22 01:57:24;;;;;;;6.95;5.18;;;9.70;99.90;;;;;;15401986;23;20024;-78
2023/03/22 02:04:05;;;;;;;9.82;5.80;;;9.70;99.90;;;;;;15401172;23;20041;-77
2023/03/22 02:10:17;;;;;;;10.55;5.53;;;9.70;99.90;;;;;;15398381;23;20016;-78
2023/03/22 02:16:19;;;;;;;9.65;5.32;;;9.80;99.90;;;;;;15405541;23;20051;-78
2023/03/22 02:22:43;;;;;;;11.65;5.63;;;9.80;99.90;;;;;;15430829;23;20458;-78
2023/03/22 02:29:03;;;;;;;8.98;5.28;;;9.80;99.90;;;;;;15402728;23;20442;-78
2023/03/22 02:35:43;;;;;;;9.15;5.53;;;9.70;99.90;;;;;;15403654;23;20029;-78
2023/03/22 02:42:11;;;;;;;12.40;5.78;;;9.60;99.90;;;;;;15389903;23;20052;-78
2023/03/22 02:48:23;;;;;;;10.25;5.15;;;9.50;99.90;;;;;;15402710;23;20325;-79
2023/03/22 02:54:32;;;;;;;11.15;5.85;;;9.50;99.90;;;;;;15403981;23;20094;-78
2023/03/22 03:00:35;;;;;;;9.85;5.30;;;9.60;99.90;;;;;;15400533;23;20359;-78
2023/03/22 03:06:44;;;;;;;9.30;5.10;;;9.50;99.90;;;;;;15403879;23;20052;-77
2023/03/22 03:12:46;;;;;;;10.07;5.68;;;9.40;99.90;;;;;;15430042;23;20016;-78
2023/03/22 03:18:57;;;;;;;9.57;5.53;;;9.60;99.90;;;;;;15403363;23;20103;-79
2023/03/22 03:25:11;;;;;;;10.30;5.88;;;9.60;99.90;;;;;;15483885;23;20027;-78
2023/03/22 03:31:25;;;;;;;8.70;5.30;;;9.50;99.90;;;;;;15499685;23;20018;-77
2023/03/22 03:37:40;;;;;;;8.45;5.35;;;9.40;99.90;;;;;;15486494;22;20016;-78
2023/03/22 03:43:44;;;;;;;8.55;5.20;;;9.30;99.90;;;;;;15484274;22;20398;-78
2023/03/22 03:49:46;;;;;;;9.35;5.70;;;9.20;99.90;;;;;;15486537;23;20032;-78
2023/03/22 03:55:48;;;;;;;10.00;5.65;;;9.20;99.90;;;;;;15480873;22;20024;-79
2023/03/22 04:01:51;;;;;;;9.93;6.18;;;9.20;99.90;;;;;;15479152;23;20339;-78
2023/03/22 04:07:53;;;;;;;10.57;5.88;;;9.30;99.90;;;;;;15484085;23;20020;-79
2023/03/22 04:13:55;;;;;;;10.25;6.38;;;9.20;99.90;;;;;;15488886;22;20095;-79
2023/03/22 04:19:57;;;;;;;12.15;6.10;;;9.40;99.90;;;;;;15470232;22;20339;-79
2023/03/22 04:26:00;;;;;;;13.40;6.50;;;9.40;99.90;;;;;;15410501;23;20079;-79
2023/03/22 04:32:02;;;;;;;13.57;5.95;;;9.50;99.90;;;;;;15379875;23;20039;-79
2023/03/22 04:38:08;;;;;;;10.15;6.45;;;9.50;99.90;;;;;;15416488;23;20689;-79
2023/03/22 04:44:10;;;;;;;11.68;6.80;;;9.50;99.90;;;;;;15402542;23;20025;-79
2023/03/22 04:50:14;;;;;;;10.25;6.53;;;9.60;99.90;;;;;;15391731;23;20017;-78
2023/03/22 04:56:16;;;;;;;11.98;6.82;;;9.60;99.90;;;;;;15390129;23;20048;-78
2023/03/22 05:02:18;;;;;;;11.52;7.20;;;9.60;99.90;;;;;;15417582;23;20017;-78
2023/03/22 05:08:24;;;;;;;11.23;6.75;;;9.70;99.90;;;;;;15388134;23;20020;-78
2023/03/22 05:14:26;;;;;;;10.80;6.88;;;9.60;99.90;;;;;;15379219;23;20028;-79
2023/03/22 05:20:28;;;;;;;12.02;7.43;;;9.60;99.90;;;;;;15392303;23;20134;-79
2023/03/22 05:26:30;;;;;;;12.30;6.82;;;9.70;99.90;;;;;;15375081;23;20029;-78
2023/03/22 05:32:32;;;;;;;14.32;7.53;;;9.70;99.90;;;;;;15388671;23;20021;-79
2023/03/22 05:38:34;;;;;;;13.68;7.90;;;9.60;99.90;;;;;;15418648;23;20056;-78
2023/03/22 05:44:36;;;;;;;11.38;7.18;;;9.60;99.90;;;;;;15400511;23;20049;-79
2023/03/22 05:50:38;;;;;;;10.75;6.78;;;9.60;99.90;;;;;;15406216;23;20143;-79
2023/03/22 05:56:40;;;;;;;12.43;7.22;;;9.60;99.90;;;;;;15397634;23;20024;-79
2023/03/22 06:02:44;;;;;;;14.75;7.15;;;9.70;99.90;;;;;;15385551;23;20027;-78
2023/03/22 06:08:47;;;;;;;13.23;6.90;;;9.80;99.90;;;;;;15395845;23;20024;-78
2023/03/22 06:14:49;;;;;;;11.02;7.38;;;9.90;99.90;;;;;;15397638;23;20046;-77
2023/03/22 06:20:51;;;;;;;10.55;6.10;;;9.90;99.90;;;;;;15401503;23;20107;-78
2023/03/22 06:26:53;;;;;;;15.40;6.28;;;9.90;99.90;;;;;;15400489;23;20036;-78
2023/03/22 06:32:59;;;;;;;9.80;5.78;;;10.10;99.90;;;;;;15402438;23;20110;-79
2023/03/22 06:39:03;;;;;;;9.63;5.63;;;10.20;99.90;;;;;;15403792;23;20599;-78
2023/03/22 06:45:06;;;;;;;10.18;5.63;;;10.40;99.90;;;;;;15413608;23;20467;-78
2023/03/22 06:51:09;;;;;;;11.73;5.10;;;10.30;99.90;;;;;;15391118;23;20028;-78
2023/03/22 06:57:11;;;;;;;8.80;5.18;;;10.50;99.90;;;;;;15408745;23;20055;-78
2023/03/22 07:03:13;;;;;;;9.93;4.50;;;10.90;99.90;;;;;;15404671;23;20103;-77
2023/03/22 07:09:15;;;;;;;9.20;4.38;;;10.90;99.90;;;;;;15433269;23;20390;-79
2023/03/22 07:15:18;;;;;;;8.93;4.80;;;11.00;99.90;;;;;;15408805;23;20102;-79
2023/03/22 07:21:21;;;;;;;11.70;3.95;;;11.20;99.90;;;;;;15432634;23;20028;-78
2023/03/22 07:27:22;;;;;;;9.07;3.78;;;11.10;99.90;;;;;;15444704;22;20016;-80
2023/03/22 07:33:24;;;;;;;8.82;3.75;;;11.10;99.90;;;;;;15481722;22;20108;-79
2023/03/22 07:39:27;;;;;;;9.52;3.42;;;11.10;99.90;;;;;;15446645;23;20044;-78
2023/03/22 07:45:30;;;;;;;7.00;3.58;;;11.20;99.90;;;;;;15410152;23;20055;-78
2023/03/22 07:51:32;;;;;;;9.63;3.67;;;11.30;99.90;;;;;;15433984;23;20020;-79
2023/03/22 07:57:35;;;;;;;7.63;3.75;;;11.40;99.90;;;;;;15429188;23;20055;-78
2023/03/22 08:03:38;;;;;;;9.77;3.60;;;11.30;99.90;;;;;;15412121;23;20024;-78
2023/03/22 08:09:40;;;;;;;7.40;3.70;;;11.20;99.90;;;;;;15403827;23;20028;-79
2023/03/22 08:15:42;;;;;;;8.07;4.10;;;11.10;99.90;;;;;;15425699;23;20463;-78
2023/03/22 08:21:44;;;;;;;8.05;4.10;;;11.10;99.90;;;;;;15397025;23;20028;-79
2023/03/22 08:27:46;;;;;;;9.50;3.70;;;11.10;99.90;;;;;;15404431;23;20079;-79
2023/03/22 08:33:49;;;;;;;9.88;3.90;;;11.30;99.90;;;;;;15397179;23;20017;-79
2023/03/22 08:39:51;;;;;;;7.15;3.13;;;11.40;99.90;;;;;;15399048;23;20032;-79
2023/03/22 08:45:53;;;;;;;7.25;2.70;;;11.60;99.90;;;;;;15396561;23;20127;-78
2023/03/22 08:51:56;;;;;;;8.65;3.20;;;11.90;99.90;;;;;;15399064;23;20019;-79
2023/03/22 08:58:00;;;;;;;7.13;2.95;;;12.00;99.90;;;;;;15389097;23;20013;-79
2023/03/22 09:04:03;;;;;;;9.57;3.15;;;12.10;99.90;;;;;;15401229;23;20024;-79
2023/03/22 09:10:07;;;;;;;8.00;2.90;;;12.20;99.90;;;;;;15397094;23;20103;-79
2023/03/22 09:16:09;;;;;;;8.57;3.22;;;12.10;99.90;;;;;;15361043;23;20358;-79
2023/03/22 09:22:11;;;;;;;10.85;3.50;;;12.10;99.90;;;;;;15398127;23;20028;-79
2023/03/22 09:28:15;;;;;;;7.40;2.80;;;12.50;99.90;;;;;;15391173;23;20059;-79
2023/03/22 09:34:18;;;;;;;11.00;3.22;;;12.60;99.90;;;;;;15387648;23;20043;-80
2023/03/22 09:40:24;;;;;;;8.50;2.50;;;12.70;99.90;;;;;;15426840;23;20043;-79
2023/03/22 09:46:33;;;;;;;9.35;3.00;;;12.90;99.90;;;;;;15397038;23;20021;-80
2023/03/22 09:52:34;;;;;;;8.38;2.42;;;12.90;99.90;;;;;;15399950;23;20024;-79
2023/03/22 09:59:03;;;;;;;7.07;2.42;;;13.20;99.90;;;;;;15422568;23;20017;-79
2023/03/22 10:05:16;;;;;;;7.38;2.33;;;13.30;99.90;;;;;;15401031;23;20021;-79
2023/03/22 10:11:41;;;;;;;7.68;2.20;;;13.30;99.90;;;;;;15395759;23;20052;-79
2023/03/22 10:17:52;;;;;;;7.05;2.03;;;13.30;99.90;;;;;;15427549;23;20028;-78
2023/03/22 10:24:01;;;;;;;6.78;2.03;;;13.20;99.90;;;;;;15458436;22;20054;-79
2023/03/22 10:30:23;;;;;;;5.10;1.67;;;13.40;99.90;;;;;;15501112;23;20012;-79
2023/03/22 10:36:33;;;;;;;6.57;2.08;;;13.50;99.90;;;;;;15507504;23;20043;-79
2023/03/22 10:42:38;;;;;;;3.83;1.95;;;13.40;99.90;;;;;;15506360;22;20051;-78
2023/03/22 10:48:44;;;;;;;6.88;1.88;;;13.50;99.90;;;;;;15491282;23;20016;-78
2023/03/22 10:54:46;;;;;;;5.57;2.17;;;13.80;99.90;;;;;;15503635;23;20343;-79
2023/03/22 11:00:52;;;;;;;5.95;1.83;;;13.40;99.90;;;;;;15483895;22;20059;-79
2023/03/22 11:06:55;;;;;;;4.82;2.00;;;13.70;99.90;;;;;;15501433;23;20027;-79
2023/03/22 11:13:06;;;;;;;10.65;1.98;;;13.60;99.90;;;;;;15502398;22;20027;-79
2023/03/22 11:19:13;;;;;;;4.95;1.92;;;13.80;99.90;;;;;;15490590;22;20055;-79
2023/03/22 11:25:27;;;;;;;4.88;1.77;;;14.10;99.90;;;;;;15500957;23;20074;-78
2023/03/22 11:31:49;;;;;;;4.90;2.15;;;14.10;99.90;;;;;;15500654;23;20476;-78
2023/03/22 11:37:55;;;;;;;7.80;2.10;;;14.20;99.90;;;;;;15503703;23;20440;-78
2023/03/22 11:44:03;;;;;;;5.17;1.67;;;14.40;99.90;;;;;;15513737;22;20023;-79
2023/03/22 11:50:09;;;;;;;7.38;1.60;;;14.30;99.90;;;;;;15495086;23;20024;-77
2023/03/22 11:56:20;;;;;;;4.85;1.55;;;14.40;99.90;;;;;;15438354;23;20020;-78
2023/03/22 12:02:31;;;;;;;6.30;2.10;;;14.20;99.90;;;;;;15497772;23;20099;-78
2023/03/22 12:08:45;;;;;;;4.53;1.80;;;14.30;99.90;;;;;;15497647;23;20091;-78
2023/03/22 12:14:57;;;;;;;5.93;1.90;;;14.30;99.90;;;;;;15499748;22;20023;-78
2023/03/22 12:21:00;;;;;;;4.22;1.90;;;14.50;99.90;;;;;;15471380;22;20031;-79
2023/03/22 12:27:26;;;;;;;7.00;2.15;;;14.60;99.90;;;;;;15417038;23;20016;-77
2023/03/22 12:33:59;;;;;;;5.70;1.95;;;14.30;99.90;;;;;;15397837;23;20056;-79
2023/03/22 12:40:31;;;;;;;9.75;2.10;;;14.20;99.90;;;;;;15373862;23;20044;-77
2023/03/22 12:46:40;;;;;;;5.20;2.05;;;14.40;99.90;;;;;;15395411;23;20012;-78
2023/03/22 12:52:57;;;;;;;6.63;1.90;;;14.50;99.90;;;;;;15423314;23;20025;-78
2023/03/22 12:59:03;;;;;;;4.70;1.77;;;14.80;99.90;;;;;;15393933;23;20024;-77
2023/03/22 13:05:09;;;;;;;5.95;2.22;;;14.60;99.90;;;;;;15398278;23;20470;-78
2023/03/22 13:11:22;;;;;;;7.03;1.75;;;14.40;99.90;;;;;;15396741;23;20074;-78
2023/03/22 13:17:24;;;;;;;6.10;1.98;;;14.20;99.90;;;;;;15399317;23;20044;-78
2023/03/22 13:23:27;;;;;;;5.03;1.65;;;13.90;99.90;;;;;;15395728;23;20336;-78
2023/03/22 13:29:31;;;;;;;4.95;1.80;;;13.70;99.90;;;;;;15386695;23;20290;-78
2023/03/22 13:36:00;;;;;;;6.00;1.50;;;13.40;99.90;;;;;;15395248;23;20040;-79
2023/03/22 13:42:19;;;;;;;8.00;1.77;;;13.30;99.90;;;;;;15395322;23;20477;-78
2023/03/22 13:48:39;;;;;;;3.85;1.25;;;13.30;99.90;;;;;;15392411;23;20056;-78
2023/03/22 13:54:46;;;;;;;2.88;1.13;;;13.20;99.90;;;;;;15390502;23;20340;-78
2023/03/22 14:00:53;;;;;;;2.92;1.00;;;13.40;99.90;;;;;;15388074;23;20060;-78
2023/03/22 14:06:59;;;;;;;4.97;1.25;;;13.40;99.90;;;;;;15403385;23;20032;-78
2023/03/22 14:13:22;;;;;;;4.50;0.98;;;13.30;99.90;;;;;;15403826;23;20055;-78
2023/03/22 14:19:30;;;;;;;4.60;1.20;;;13.30;99.90;;;;;;15394878;23;20024;-80
2023/03/22 14:25:34;;;;;;;6.60;1.48;;;13.40;99.90;;;;;;15398909;23;20363;-78
2023/03/22 14:31:35;;;;;;;6.68;1.15;;;13.40;99.90;;;;;;15393300;22;20386;-78
2023/03/22 14:37:39;;;;;;;9.48;1.30;;;13.40;99.90;;;;;;15392649;23;20013;-77
2023/03/22 14:43:42;;;;;;;3.50;1.27;;;13.40;99.90;;;;;;15424583;22;20032;-78
2023/03/22 14:49:46;;;;;;;2.90;0.90;;;13.50;99.90;;;;;;15428397;23;20019;-79
2023/03/22 14:55:50;;;;;;;6.72;2.47;;;13.70;99.90;;;;;;15403806;23;20435;-78
2023/03/22 15:02:01;;;;;;;8.60;1.27;;;13.80;99.90;;;;;;15376529;23;20059;-78
2023/03/22 15:08:17;;;;;;;3.55;0.90;;;13.70;99.90;;;;;;15428214;23;20019;-78
2023/03/22 15:14:18;;;;;;;4.22;1.00;;;13.80;99.90;;;;;;15372178;23;20035;-78
2023/03/22 15:20:26;;;;;;;2.28;0.90;;;13.60;99.90;;;;;;15397230;22;20035;-77
2023/03/22 15:26:28;;;;;;;5.07;1.00;;;13.40;99.90;;;;;;15388282;23;20024;-78
2023/03/22 15:32:29;;;;;;;8.30;1.23;;;13.40;99.90;;;;;;15376145;23;20016;-77
2023/03/22 15:38:36;;;;;;;3.17;0.88;;;13.20;99.90;;;;;;15401826;23;20060;-77
2023/03/22 15:44:39;;;;;;;2.20;0.88;;;13.10;99.90;;;;;;15367711;23;20020;-78
2023/03/22 15:50:40;;;;;;;3.63;0.75;;;13.00;99.90;;;;;;15376438;23;20104;-77
2023/03/22 15:56:47;;;;;;;7.15;1.10;;;12.90;99.90;;;;;;15400245;23;20048;-77
2023/03/22 16:03:12;;;;;;;5.32;1.15;;;12.90;99.90;;;;;;15374901;23;20024;-77
2023/03/22 16:09:15;;;;;;;4.75;1.08;;;12.90;99.90;;;;;;15382889;23;20063;-78
2023/03/22 16:15:21;;;;;;;5.13;1.23;;;12.80;99.90;;;;;;15392930;23;20067;-77
2023/03/22 16:21:30;;;;;;;4.10;1.30;;;12.70;99.90;;;;;;15398108;23;20027;-78
2023/03/22 16:27:31;;;;;;;6.93;1.73;;;12.60;99.90;;;;;;15368057;23;20028;-78
2023/03/22 16:33:32;;;;;;;3.50;1.17;;;12.60;99.90;;;;;;15390189;23;20707;-78
2023/03/22 16:39:39;;;;;;;4.07;1.55;;;12.60;99.90;;;;;;15366497;23;20051;-77
2023/03/22 16:45:42;;;;;;;5.07;1.00;;;12.60;99.90;;;;;;15352538;23;20031;-76
2023/03/22 16:51:43;;;;;;;4.88;1.05;;;12.60;99.90;;;;;;15367240;23;20021;-78
2023/03/22 16:57:44;;;;;;;3.45;1.00;;;12.50;99.90;;;;;;15386469;23;20028;-79
2023/03/22 17:03:50;;;;;;;2.65;0.95;;;12.40;99.90;;;;;;15368340;23;20079;-78
2023/03/22 17:09:51;;;;;;;4.55;1.10;;;12.30;99.90;;;;;;15396750;23;20084;-78
2023/03/22 17:15:52;;;;;;;6.80;1.33;;;12.30;99.90;;;;;;15393986;23;20016;-78
2023/03/22 17:21:53;;;;;;;5.43;1.10;;;12.20;99.90;;;;;;15370498;23;20025;-78
2023/03/22 17:27:54;;;;;;;5.40;1.45;;;12.30;99.90;;;;;;15373147;23;20020;-78
2023/03/22 17:33:56;;;;;;;3.20;1.00;;;12.30;99.90;;;;;;15377470;23;20020;-77
2023/03/22 17:39:57;;;;;;;3.78;1.10;;;12.20;99.90;;;;;;15406190;23;20027;-77
2023/03/22 17:45:58;;;;;;;5.82;1.25;;;12.10;99.90;;;;;;15373306;23;20035;-79
2023/03/22 17:51:59;;;;;;;4.78;1.20;;;12.10;99.90;;;;;;15376720;23;20021;-78
2023/03/22 17:58:00;;;;;;;2.83;1.10;;;12.10;99.90;;;;;;15381260;23;20067;-77
2023/03/22 18:04:02;;;;;;;6.47;1.23;;;12.10;99.90;;;;;;15374612;23;20116;-78
2023/03/22 18:10:06;;;;;;;3.72;0.90;;;12.00;99.90;;;;;;15376178;23;20020;-78
2023/03/22 18:16:07;;;;;;;;;;;12.00;99.90;;;;;;15374875;23;20016;-79
2023/03/22 18:22:08;;;;;;;3.58;1.00;;;11.90;99.90;;;;;;15419741;23;19924;-78
2023/03/22 18:28:08;;;;;;;4.53;1.10;;;12.00;99.90;;;;;;15370481;23;20393;-77
2023/03/22 18:34:09;;;;;;;3.55;0.90;;;11.80;99.90;;;;;;15365690;23;20351;-77
2023/03/22 18:40:13;;;;;;;3.83;1.25;;;11.90;99.90;;;;;;15372438;23;20017;-78
2023/03/22 18:46:16;;;;;;;6.45;1.00;;;11.80;99.90;;;;;;15399870;23;20017;-78
2023/03/22 18:52:17;;;;;;;6.05;1.27;;;11.80;99.90;;;;;;15403148;23;20056;-78
2023/03/22 18:58:17;;;;;;;3.67;0.93;;;11.80;99.90;;;;;;15395473;23;20495;-79
2023/03/22 19:04:18;;;;;;;4.88;1.15;;;11.90;99.90;;;;;;15400176;23;20028;-77
2023/03/22 19:10:19;;;;;;;4.97;1.52;;;11.90;99.90;;;;;;15399353;23;20111;-77
2023/03/22 19:16:20;;;;;;;6.22;1.20;;;11.90;99.90;;;;;;15401947;23;20043;-78
2023/03/22 19:22:21;;;;;;;4.93;1.20;;;11.90;99.90;;;;;;15400878;23;20020;-77
2023/03/22 19:28:22;;;;;;;2.97;1.00;;;11.90;99.90;;;;;;15372482;23;20021;-78
2023/03/22 19:34:24;;;;;;;3.30;1.63;;;11.90;99.90;;;;;;15374854;23;20136;-78
2023/03/22 19:40:26;;;;;;;7.18;1.27;;;11.90;99.90;;;;;;15379381;23;20021;-78
2023/03/22 19:46:28;;;;;;;5.55;0.98;;;11.80;99.90;;;;;;15400333;23;20059;-77
2023/03/22 19:52:30;;;;;;;5.88;1.20;;;11.90;99.90;;;;;;15400884;23;20017;-78
2023/03/22 19:58:31;;;;;;;4.93;1.20;;;11.90;99.90;;;;;;15373860;23;20028;-77
2023/03/22 20:04:31;;;;;;;3.30;1.35;;;11.90;99.90;;;;;;15402064;23;20020;-78
2023/03/22 20:10:32;;;;;;;5.78;1.13;;;11.90;99.90;;;;;;15371328;23;20346;-79
2023/03/22 20:16:37;;;;;;;6.95;1.45;;;11.90;99.90;;;;;;15397476;23;20028;-78
2023/03/22 20:22:39;;;;;;;3.90;1.35;;;11.80;99.90;;;;;;15371612;23;20024;-77
2023/03/22 20:28:41;;;;;;;5.07;1.30;;;11.90;99.90;;;;;;15354887;23;20016;-77
2023/03/22 20:34:42;;;;;;;4.57;1.00;;;11.90;99.90;;;;;;15370336;23;20020;-78
2023/03/22 20:40:45;;;;;;;4.43;1.15;;;11.90;99.90;;;;;;15399183;23;20467;-78
2023/03/22 20:46:46;;;;;;;5.20;1.20;;;11.80;99.90;;;;;;15371886;23;20096;-78
2023/03/22 20:52:47;;;;;;;4.57;1.30;;;11.80;99.90;;;;;;15389171;23;20016;-79
2023/03/22 20:58:48;;;;;;;5.15;1.65;;;11.80;99.90;;;;;;15368917;23;20367;-78
2023/03/22 21:04:50;;;;;;;4.72;1.60;;;11.90;99.90;;;;;;15373538;23;20043;-79
2023/03/22 21:10:51;;;;;;;5.32;1.30;;;11.90;99.90;;;;;;15370292;23;20036;-78
2023/03/22 21:16:51;;;;;;;4.95;1.50;;;11.90;99.90;;;;;;15364652;23;20029;-78
2023/03/22 21:22:52;;;;;;;4.97;1.38;;;11.90;99.90;;;;;;15364848;23;20455;-78
2023/03/22 21:28:53;;;;;;;6.53;1.50;;;11.90;99.90;;;;;;15394079;23;20020;-78
2023/03/22 21:34:54;;;;;;;5.55;1.58;;;11.90;99.90;;;;;;15375136;23;20151;-78
2023/03/22 21:40:56;;;;;;;6.22;1.45;;;12.00;99.90;;;;;;15366325;23;20337;-79
2023/03/22 21:46:57;;;;;;;7.07;1.30;;;12.00;99.90;;;;;;15374524;23;20013;-79
2023/03/22 21:52:58;;;;;;;5.20;1.38;;;12.10;99.90;;;;;;15397166;23;20016;-78
2023/03/22 21:58:59;;;;;;;3.75;1.20;;;12.10;99.90;;;;;;15392929;23;20095;-79
2023/03/22 22:05:00;;;;;;;3.70;1.40;;;12.00;99.90;;;;;;15374019;23;20385;-78
2023/03/22 22:11:04;;;;;;;3.38;1.33;;;12.00;99.90;;;;;;15391395;23;20396;-78
2023/03/22 22:17:04;;;;;;;2.92;1.50;;;12.10;99.90;;;;;;15371865;23;20461;-79
2023/03/22 22:23:06;;;;;;;4.75;1.52;;;12.10;99.90;;;;;;15368413;23;20031;-79
2023/03/22 22:29:07;;;;;;;4.85;1.50;;;12.10;99.90;;;;;;15393910;23;20451;-78
2023/03/22 22:35:10;;;;;;;5.50;1.80;;;12.10;99.90;;;;;;15391725;23;20024;-79
2023/03/22 22:41:13;;;;;;;4.63;1.85;;;12.10;99.90;;;;;;15378369;23;20027;-78
2023/03/22 22:47:14;;;;;;;5.07;1.90;;;12.10;99.90;;;;;;15367867;23;20023;-79
2023/03/22 22:53:15;;;;;;;4.90;1.75;;;12.00;99.90;;;;;;15397959;23;20023;-80
2023/03/22 22:59:15;;;;;;;3.25;1.50;;;11.80;99.90;;;;;;15367693;23;20139;-79
2023/03/22 23:05:16;;;;;;;3.42;1.63;;;11.70;99.90;;;;;;15401600;23;20151;-79
2023/03/22 23:11:18;;;;;;;5.10;1.50;;;11.40;99.90;;;;;;15403009;23;20017;-79
2023/03/22 23:17:20;;;;;;;4.40;1.83;;;11.30;99.90;;;;;;15365623;23;20497;-78
2023/03/22 23:23:21;;;;;;;5.43;2.03;;;11.20;99.90;;;;;;15396495;23;20017;-79
2023/03/22 23:29:23;;;;;;;3.90;2.10;;;11.10;99.90;;;;;;15389448;23;20459;-79
2023/03/22 23:35:28;;;;;;;5.97;2.35;;;11.00;99.90;;;;;;15368251;23;20363;-79
2023/03/22 23:41:34;;;;;;;4.70;2.22;;;10.90;99.90;;;;;;15400893;23;20028;-78
2023/03/22 23:47:36;;;;;;;9.85;2.45;;;11.00;99.90;;;;;;15376308;23;20096;-79
2023/03/22 23:53:37;;;;;;;7.20;2.88;;;11.00;99.90;;;;;;15374150;23;20028;-79
2023/03/22 23:59:38;;;;;;;6.90;2.92;;;10.90;99.90;;;;;;15378015;23;20106;-79
